sensor_id;sensor_type;location;lat;lon;timestamp;pressure;altitude;pressure_sealevel;temperature;humidity
80640;BME280;69992;60.170;24.692;2023-06-14T00:01:07;101971.21;;;6.44;14.17
80640;BME280;69992;60.170;24.692;2023-06-14T00:03:32;101972.50;;;6.35;14.17
80640;BME280;69992;60.170;24.692;2023-06-14T00:05:58;101974.40;;;5.24;14.19
80640;BME280;69992;60.170;24.692;2023-06-14T00:08:24;101978.51;;;6.10;14.18
80640;BME280;69992;60.170;24.692;2023-06-14T00:10:49;101976.33;;;5.99;14.20
80640;BME280;69992;60.170;24.692;2023-06-14T00:13:15;101975.27;;;4.87;14.17
80640;BME280;69992;60.170;24.692;2023-06-14T00:15:41;101974.47;;;5.73;14.18
80640;BME280;69992;60.170;24.692;2023-06-14T00:18:06;101975.71;;;5.60;14.17
80640;BME280;69992;60.170;24.692;2023-06-14T00:20:33;101974.33;;;5.44;14.17
80640;BME280;69992;60.170;24.692;2023-06-14T00:22:58;101974.59;;;5.34;14.18
80640;BME280;69992;60.170;24.692;2023-06-14T00:25:24;101974.27;;;5.26;14.18
80640;BME280;69992;60.170;24.692;2023-06-14T00:27:49;101973.72;;;5.21;14.19
80640;BME280;69992;60.170;24.692;2023-06-14T00:30:15;101971.94;;;5.09;14.18
80640;BME280;69992;60.170;24.692;2023-06-14T00:32:41;101970.89;;;5.07;14.19
80640;BME280;69992;60.170;24.692;2023-06-14T00:35:07;101970.72;;;5.08;14.18
80640;BME280;69992;60.170;24.692;2023-06-14T00:37:32;101970.82;;;5.05;14.18
80640;BME280;69992;60.170;24.692;2023-06-14T00:39:58;101969.53;;;4.95;14.18
80640;BME280;69992;60.170;24.692;2023-06-14T00:42:24;101973.66;;;5.83;14.19
80640;BME280;69992;60.170;24.692;2023-06-14T00:44:49;101969.84;;;6.73;14.16
80640;BME280;69992;60.170;24.692;2023-06-14T00:47:15;101968.32;;;3.66;14.17
80640;BME280;69992;60.170;24.692;2023-06-14T00:49:41;101970.33;;;4.55;14.19
80640;BME280;69992;60.170;24.692;2023-06-14T00:52:07;101970.16;;;5.52;14.18
80640;BME280;69992;60.170;24.692;2023-06-14T00:54:32;101968.12;;;4.44;14.15
80640;BME280;69992;60.170;24.692;2023-06-14T00:56:58;101972.12;;;6.30;14.17
80640;BME280;69992;60.170;24.692;2023-06-14T00:59:24;101973.80;;;5.19;14.18
80640;BME280;69992;60.170;24.692;2023-06-14T01:01:49;101974.24;;;4.09;14.17
80640;BME280;69992;60.170;24.692;2023-06-14T01:04:15;101971.10;;;3.98;14.18
80640;BME280;69992;60.170;24.692;2023-06-14T01:06:45;101969.88;;;5.83;14.18
80640;BME280;69992;60.170;24.692;2023-06-14T01:09:12;101972.73;;;4.75;14.20
80640;BME280;69992;60.170;24.692;2023-06-14T01:11:39;101973.54;;;4.66;14.18
80640;BME280;69992;60.170;24.692;2023-06-14T01:14:00;101973.35;;;4.54;14.19
80640;BME280;69992;60.170;24.692;2023-06-14T01:16:24;101974.86;;;4.50;14.18
80640;BME280;69992;60.170;24.692;2023-06-14T01:18:52;101976.97;;;5.40;14.19
80640;BME280;69992;60.170;24.692;2023-06-14T01:21:21;101976.57;;;4.37;14.19
80640;BME280;69992;60.170;24.692;2023-06-14T01:23:41;101973.20;;;5.29;14.19
80640;BME280;69992;60.170;24.692;2023-06-14T01:26:07;101974.73;;;5.24;14.19
80640;BME280;69992;60.170;24.692;2023-06-14T01:28:33;101974.51;;;5.16;14.18
80640;BME280;69992;60.170;24.692;2023-06-14T01:31:00;101972.02;;;5.09;14.19
80640;BME280;69992;60.170;24.692;2023-06-14T01:33:26;101969.90;;;5.06;14.22
80640;BME280;69992;60.170;24.692;2023-06-14T01:35:51;101970.51;;;4.97;14.22
80640;BME280;69992;60.170;24.692;2023-06-14T01:38:17;101971.13;;;2.94;14.23
80640;BME280;69992;60.170;24.692;2023-06-14T01:40:43;101970.69;;;3.85;14.23
80640;BME280;69992;60.170;24.692;2023-06-14T01:43:07;101971.69;;;3.77;14.22
80640;BME280;69992;60.170;24.692;2023-06-14T01:45:33;101968.59;;;4.70;14.22
80640;BME280;69992;60.170;24.692;2023-06-14T01:47:59;101971.50;;;5.63;14.23
80640;BME280;69992;60.170;24.692;2023-06-14T01:50:28;101970.54;;;4.65;14.21
80640;BME280;69992;60.170;24.692;2023-06-14T01:52:50;101972.48;;;4.65;14.21
80640;BME280;69992;60.170;24.692;2023-06-14T01:55:15;101975.28;;;3.67;14.20
80640;BME280;69992;60.170;24.692;2023-06-14T01:57:41;101972.21;;;4.62;14.21
80640;BME280;69992;60.170;24.692;2023-06-14T02:00:08;101970.81;;;4.72;14.21
80640;BME280;69992;60.170;24.692;2023-06-14T02:02:33;101970.35;;;4.84;14.21
80640;BME280;69992;60.170;24.692;2023-06-14T02:04:58;101972.24;;;4.82;14.19
80640;BME280;69992;60.170;24.692;2023-06-14T02:07:24;101974.77;;;4.84;14.20
80640;BME280;69992;60.170;24.692;2023-06-14T02:09:50;101973.34;;;4.88;14.21
80640;BME280;69992;60.170;24.692;2023-06-14T02:12:16;101972.48;;;4.98;14.20
80640;BME280;69992;60.170;24.692;2023-06-14T02:14:41;101975.56;;;5.13;14.19
80640;BME280;69992;60.170;24.692;2023-06-14T02:17:07;101974.92;;;4.18;14.18
80640;BME280;69992;60.170;24.692;2023-06-14T02:19:33;101977.38;;;5.21;14.18
80640;BME280;69992;60.170;24.692;2023-06-14T02:21:59;101975.44;;;5.25;14.18
80640;BME280;69992;60.170;24.692;2023-06-14T02:24:24;101976.66;;;6.28;14.20
80640;BME280;69992;60.170;24.692;2023-06-14T02:26:50;101980.25;;;4.46;14.20
80640;BME280;69992;60.170;24.692;2023-06-14T02:29:15;101979.04;;;4.60;14.19
80640;BME280;69992;60.170;24.692;2023-06-14T02:31:41;101979.80;;;5.67;14.18
80640;BME280;69992;60.170;24.692;2023-06-14T02:34:07;101979.94;;;5.76;14.18
80640;BME280;69992;60.170;24.692;2023-06-14T02:36:33;101978.41;;;5.84;14.18
80640;BME280;69992;60.170;24.692;2023-06-14T02:38:58;101978.98;;;4.83;14.18
80640;BME280;69992;60.170;24.692;2023-06-14T02:41:24;101978.68;;;5.89;14.19
80640;BME280;69992;60.170;24.692;2023-06-14T02:43:50;101979.50;;;4.00;14.19
80640;BME280;69992;60.170;24.692;2023-06-14T02:46:15;101976.46;;;4.05;14.17
80640;BME280;69992;60.170;24.692;2023-06-14T02:48:41;101975.87;;;6.12;14.18
80640;BME280;69992;60.170;24.692;2023-06-14T02:51:07;101977.48;;;5.30;14.18
80640;BME280;69992;60.170;24.692;2023-06-14T02:53:33;101981.08;;;4.49;14.19
80640;BME280;69992;60.170;24.692;2023-06-14T02:55:58;101979.90;;;5.64;14.19
80640;BME280;69992;60.170;24.692;2023-06-14T02:58:24;101980.02;;;4.84;14.20
80640;BME280;69992;60.170;24.692;2023-06-14T03:00:50;101980.92;;;6.02;14.17
80640;BME280;69992;60.170;24.692;2023-06-14T03:03:15;101984.53;;;5.25;14.18
80640;BME280;69992;60.170;24.692;2023-06-14T03:05:44;101984.43;;;5.45;14.21
80640;BME280;69992;60.170;24.692;2023-06-14T03:08:07;101985.27;;;5.67;14.18
80640;BME280;69992;60.170;24.692;2023-06-14T03:10:33;101990.17;;;5.86;14.17
80640;BME280;69992;60.170;24.692;2023-06-14T03:12:58;101993.50;;;6.05;14.15
80640;BME280;69992;60.170;24.692;2023-06-14T03:15:24;101992.60;;;6.22;14.16
80640;BME280;69992;60.170;24.692;2023-06-14T03:17:50;101994.35;;;6.37;14.17
80640;BME280;69992;60.170;24.692;2023-06-14T03:20:16;101998.61;;;5.62;14.17
80640;BME280;69992;60.170;24.692;2023-06-14T03:22:41;101998.65;;;6.81;14.19
80640;BME280;69992;60.170;24.692;2023-06-14T03:25:08;102000.55;;;7.09;14.16
80640;BME280;69992;60.170;24.692;2023-06-14T03:27:33;102000.43;;;6.34;14.15
80640;BME280;69992;60.170;24.692;2023-06-14T03:29:58;102003.00;;;7.52;14.14
80640;BME280;69992;60.170;24.692;2023-06-14T03:32:24;102005.32;;;7.69;14.17
80640;BME280;69992;60.170;24.692;2023-06-14T03:34:50;102006.12;;;6.93;14.16
80640;BME280;69992;60.170;24.692;2023-06-14T03:37:15;102006.93;;;6.17;14.17
80640;BME280;69992;60.170;24.692;2023-06-14T03:39:41;102005.49;;;7.37;14.17
80640;BME280;69992;60.170;24.692;2023-06-14T03:42:07;102006.52;;;7.65;14.15
80640;BME280;69992;60.170;24.692;2023-06-14T03:44:32;102009.35;;;6.98;14.14
80640;BME280;69992;60.170;24.692;2023-06-14T03:46:58;102010.70;;;8.20;14.13
80640;BME280;69992;60.170;24.692;2023-06-14T03:49:24;102015.23;;;7.46;14.13
80640;BME280;69992;60.170;24.692;2023-06-14T03:51:49;102015.78;;;6.72;14.13
80640;BME280;69992;60.170;24.692;2023-06-14T03:54:15;102014.88;;;7.92;14.14
80640;BME280;69992;60.170;24.692;2023-06-14T03:56:41;102017.30;;;8.17;14.14
80640;BME280;69992;60.170;24.692;2023-06-14T03:59:06;102017.24;;;7.45;14.14
80640;BME280;69992;60.170;24.692;2023-06-14T04:01:32;102017.50;;;7.73;14.14
80640;BME280;69992;60.170;24.692;2023-06-14T04:03:58;102018.53;;;8.96;14.13
80640;BME280;69992;60.170;24.692;2023-06-14T04:06:23;102017.88;;;7.23;14.14
80640;BME280;69992;60.170;24.692;2023-06-14T04:08:49;102017.16;;;7.44;14.16
80640;BME280;69992;60.170;24.692;2023-06-14T04:11:15;102018.49;;;7.71;14.17
80640;BME280;69992;60.170;24.692;2023-06-14T04:13:40;102018.92;;;8.02;14.15
80640;BME280;69992;60.170;24.692;2023-06-14T04:16:06;102015.97;;;8.27;14.15
80640;BME280;69992;60.170;24.692;2023-06-14T04:18:32;102015.97;;;9.51;14.15
80640;BME280;69992;60.170;24.692;2023-06-14T04:20:57;102019.19;;;8.81;14.14
80640;BME280;69992;60.170;24.692;2023-06-14T04:23:23;102021.54;;;9.10;14.15
80640;BME280;69992;60.170;24.692;2023-06-14T04:25:49;102023.56;;;9.43;14.13
80640;BME280;69992;60.170;24.692;2023-06-14T04:28:15;102025.09;;;9.71;14.12
80640;BME280;69992;60.170;24.692;2023-06-14T04:30:40;102026.07;;;9.03;14.11
80640;BME280;69992;60.170;24.692;2023-06-14T04:33:06;102028.82;;;9.34;14.11
80640;BME280;69992;60.170;24.692;2023-06-14T04:35:31;102029.05;;;10.57;14.11
80640;BME280;69992;60.170;24.692;2023-06-14T04:37:57;102028.18;;;9.84;14.12
80640;BME280;69992;60.170;24.692;2023-06-14T04:40:23;102028.01;;;9.07;14.20
80640;BME280;69992;60.170;24.692;2023-06-14T04:42:48;102026.60;;;9.37;14.17
80640;BME280;69992;60.170;24.692;2023-06-14T04:45:14;102026.01;;;10.60;14.16
80640;BME280;69992;60.170;24.692;2023-06-14T04:47:40;102024.03;;;9.84;14.19
80640;BME280;69992;60.170;24.692;2023-06-14T04:50:06;102024.48;;;10.16;14.20
80640;BME280;69992;60.170;24.692;2023-06-14T04:52:31;102023.07;;;10.51;14.20
80640;BME280;69992;60.170;24.692;2023-06-14T04:54:56;102021.91;;;9.88;14.18
80640;BME280;69992;60.170;24.692;2023-06-14T04:57:22;102022.35;;;9.26;14.17
80640;BME280;69992;60.170;24.692;2023-06-14T04:59:48;102018.66;;;9.54;14.17
80640;BME280;69992;60.170;24.692;2023-06-14T05:02:14;102014.28;;;9.82;14.17
80640;BME280;69992;60.170;24.692;2023-06-14T05:04:39;102018.45;;;11.07;14.19
80640;BME280;69992;60.170;24.692;2023-06-14T05:07:05;102018.63;;;10.36;14.20
80640;BME280;69992;60.170;24.692;2023-06-14T05:09:30;102019.94;;;10.63;14.20
80640;BME280;69992;60.170;24.692;2023-06-14T05:11:56;102019.48;;;10.89;14.22
80640;BME280;69992;60.170;24.692;2023-06-14T05:14:21;102022.10;;;11.18;14.23
80640;BME280;69992;60.170;24.692;2023-06-14T05:16:47;102021.48;;;11.61;14.20
80640;BME280;69992;60.170;24.692;2023-06-14T05:19:13;102023.67;;;11.90;14.20
80640;BME280;69992;60.170;24.692;2023-06-14T05:21:38;102020.73;;;11.19;14.21
80640;BME280;69992;60.170;24.692;2023-06-14T05:24:04;102021.29;;;11.45;14.22
80640;BME280;69992;60.170;24.692;2023-06-14T05:26:29;102022.40;;;11.71;14.27
80640;BME280;69992;60.170;24.692;2023-06-14T05:28:55;102024.12;;;11.92;14.35
80640;BME280;69992;60.170;24.692;2023-06-14T05:31:20;102026.89;;;11.30;14.29
80640;BME280;69992;60.170;24.692;2023-06-14T05:33:46;102030.58;;;12.68;14.27
80640;BME280;69992;60.170;24.692;2023-06-14T05:36:11;102030.80;;;11.99;14.27
80640;BME280;69992;60.170;24.692;2023-06-14T05:38:37;102027.24;;;12.33;14.25
80640;BME280;69992;60.170;24.692;2023-06-14T05:41:03;102026.98;;;12.71;14.21
80640;BME280;69992;60.170;24.692;2023-06-14T05:43:28;102026.18;;;11.98;14.25
80640;BME280;69992;60.170;24.692;2023-06-14T05:45:54;102018.28;;;12.26;14.27
80640;BME280;69992;60.170;24.692;2023-06-14T05:48:19;102018.42;;;13.49;14.26
80640;BME280;69992;60.170;24.692;2023-06-14T05:50:45;102017.70;;;13.80;14.24
80640;BME280;69992;60.170;24.692;2023-06-14T05:53:11;102018.14;;;12.14;14.23
80640;BME280;69992;60.170;24.692;2023-06-14T05:55:36;102020.62;;;14.46;14.21
80640;BME280;69992;60.170;24.692;2023-06-14T05:58:02;102019.96;;;12.72;14.23
80640;BME280;69992;60.170;24.692;2023-06-14T06:00:27;102021.73;;;12.91;14.26
80640;BME280;69992;60.170;24.692;2023-06-14T06:02:53;102022.86;;;13.21;14.25
80640;BME280;69992;60.170;24.692;2023-06-14T06:05:19;102023.59;;;13.49;14.25
80640;BME280;69992;60.170;24.692;2023-06-14T06:07:44;102024.14;;;13.79;14.23
80640;BME280;69992;60.170;24.692;2023-06-14T06:10:10;102024.00;;;14.10;14.23
80640;BME280;69992;60.170;24.692;2023-06-14T06:12:35;102025.92;;;14.46;14.21
80640;BME280;69992;60.170;24.692;2023-06-14T06:15:01;102024.53;;;14.77;14.20
80640;BME280;69992;60.170;24.692;2023-06-14T06:17:26;102024.19;;;15.03;14.21
80640;BME280;69992;60.170;24.692;2023-06-14T06:19:52;102024.98;;;15.33;14.21
80640;BME280;69992;60.170;24.692;2023-06-14T06:22:18;102023.61;;;13.60;14.21
80640;BME280;69992;60.170;24.692;2023-06-14T06:24:43;102020.59;;;13.86;14.23
80640;BME280;69992;60.170;24.692;2023-06-14T06:27:09;102021.79;;;15.02;14.29
80640;BME280;69992;60.170;24.692;2023-06-14T06:29:34;102025.03;;;14.27;14.27
80640;BME280;69992;60.170;24.692;2023-06-14T06:32:00;102022.85;;;14.53;14.27
80640;BME280;69992;60.170;24.692;2023-06-14T06:34:25;102022.55;;;14.76;14.31
80640;BME280;69992;60.170;24.692;2023-06-14T06:36:50;102023.28;;;14.94;14.30
80640;BME280;69992;60.170;24.692;2023-06-14T06:39:16;102028.50;;;13.30;14.29
80640;BME280;69992;60.170;24.692;2023-06-14T06:41:42;102029.01;;;14.58;14.29
80640;BME280;69992;60.170;24.692;2023-06-14T06:44:07;102031.58;;;15.84;14.27
80640;BME280;69992;60.170;24.692;2023-06-14T06:46:33;102030.28;;;16.11;14.30
80640;BME280;69992;60.170;24.692;2023-06-14T06:48:58;102030.02;;;15.36;14.28
80640;BME280;69992;60.170;24.692;2023-06-14T06:51:24;102030.62;;;16.57;14.31
80640;BME280;69992;60.170;24.692;2023-06-14T06:53:53;102032.35;;;16.78;14.32
80640;BME280;69992;60.170;24.692;2023-06-14T06:56:15;102035.93;;;15.14;14.30
80640;BME280;69992;60.170;24.692;2023-06-14T06:58:40;102037.04;;;15.43;14.29
80640;BME280;69992;60.170;24.692;2023-06-14T07:01:06;102040.28;;;15.67;14.29
80640;BME280;69992;60.170;24.692;2023-06-14T07:03:32;102042.86;;;15.84;14.33
80640;BME280;69992;60.170;24.692;2023-06-14T07:05:57;102046.39;;;16.02;14.34
80640;BME280;69992;60.170;24.692;2023-06-14T07:08:23;102048.68;;;16.17;14.36
80640;BME280;69992;60.170;24.692;2023-06-14T07:10:48;102053.64;;;16.45;14.33
80640;BME280;69992;60.170;24.692;2023-06-14T07:13:14;102054.99;;;16.67;14.33
80640;BME280;69992;60.170;24.692;2023-06-14T07:15:39;102055.35;;;16.83;14.36
80640;BME280;69992;60.170;24.692;2023-06-14T07:18:05;102056.94;;;16.98;14.36
80640;BME280;69992;60.170;24.692;2023-06-14T07:20:30;102057.86;;;17.16;14.36
80640;BME280;69992;60.170;24.692;2023-06-14T07:22:56;102060.90;;;17.35;14.37
80640;BME280;69992;60.170;24.692;2023-06-14T07:25:21;102061.22;;;15.62;14.37
80640;BME280;69992;60.170;24.692;2023-06-14T07:27:47;102061.29;;;15.91;14.36
80640;BME280;69992;60.170;24.692;2023-06-14T07:30:13;102057.02;;;17.16;14.36
80640;BME280;69992;60.170;24.692;2023-06-14T07:32:38;102058.34;;;17.45;14.36
80640;BME280;69992;60.170;24.692;2023-06-14T07:35:04;102061.90;;;16.73;14.37
80640;BME280;69992;60.170;24.692;2023-06-14T07:37:29;102063.41;;;16.85;14.43
80640;BME280;69992;60.170;24.692;2023-06-14T07:39:55;102064.70;;;17.03;14.42
80640;BME280;69992;60.170;24.692;2023-06-14T07:42:20;102064.14;;;17.06;14.49
80640;BME280;69992;60.170;24.692;2023-06-14T07:44:45;102065.99;;;18.15;14.47
80640;BME280;69992;60.170;24.692;2023-06-14T07:47:11;102068.94;;;17.34;14.49
80640;BME280;69992;60.170;24.692;2023-06-14T07:49:36;102068.72;;;17.57;14.49
80640;BME280;69992;60.170;24.692;2023-06-14T07:52:02;102070.13;;;17.85;14.49
80640;BME280;69992;60.170;24.692;2023-06-14T07:54:27;102071.26;;;18.21;14.47
80640;BME280;69992;60.170;24.692;2023-06-14T07:56:53;102072.22;;;17.40;14.50
80640;BME280;69992;60.170;24.692;2023-06-14T07:59:18;102071.01;;;17.67;14.51
80640;BME280;69992;60.170;24.692;2023-06-14T08:01:44;102065.07;;;18.90;14.50
80640;BME280;69992;60.170;24.692;2023-06-14T08:04:09;102068.65;;;19.17;14.50
80640;BME280;69992;60.170;24.692;2023-06-14T08:06:35;102070.92;;;18.48;14.53
80640;BME280;69992;60.170;24.692;2023-06-14T08:09:00;102070.84;;;17.81;14.53
80640;BME280;69992;60.170;24.692;2023-06-14T08:11:26;102069.28;;;18.13;14.50
80640;BME280;69992;60.170;24.692;2023-06-14T08:13:51;102072.13;;;18.50;14.50
80640;BME280;69992;60.170;24.692;2023-06-14T08:16:17;102068.79;;;17.77;14.51
80640;BME280;69992;60.170;24.692;2023-06-14T08:18:42;102068.82;;;18.00;14.51
80640;BME280;69992;60.170;24.692;2023-06-14T08:21:08;102070.19;;;19.32;14.51
80640;BME280;69992;60.170;24.692;2023-06-14T08:23:33;102068.29;;;19.58;14.51
80640;BME280;69992;60.170;24.692;2023-06-14T08:25:59;102070.57;;;19.76;14.52
80640;BME280;69992;60.170;24.692;2023-06-14T08:28:24;102071.59;;;18.06;14.54
80640;BME280;69992;60.170;24.692;2023-06-14T08:30:50;102072.13;;;20.30;14.52
80640;BME280;69992;60.170;24.692;2023-06-14T08:33:15;102074.70;;;20.46;14.56
80640;BME280;69992;60.170;24.692;2023-06-14T08:35:40;102072.44;;;20.77;14.56
80640;BME280;69992;60.170;24.692;2023-06-14T08:38:06;102070.88;;;20.09;14.56
80640;BME280;69992;60.170;24.692;2023-06-14T08:40:31;102069.33;;;19.32;14.57
80640;BME280;69992;60.170;24.692;2023-06-14T08:42:57;102072.01;;;19.52;14.58
80640;BME280;69992;60.170;24.692;2023-06-14T08:45:23;102072.76;;;19.76;14.59
80640;BME280;69992;60.170;24.692;2023-06-14T08:47:48;102076.67;;;20.21;14.58
80640;BME280;69992;60.170;24.692;2023-06-14T08:50:14;102082.49;;;20.57;14.57
80640;BME280;69992;60.170;24.692;2023-06-14T08:52:39;102082.87;;;19.00;14.55
80640;BME280;69992;60.170;24.692;2023-06-14T08:55:04;102081.63;;;19.30;14.56
80640;BME280;69992;60.170;24.692;2023-06-14T08:57:29;102083.72;;;20.63;14.55
80640;BME280;69992;60.170;24.692;2023-06-14T08:59:55;102087.25;;;20.01;14.53
80640;BME280;69992;60.170;24.692;2023-06-14T09:02:20;102088.34;;;20.37;14.54
80640;BME280;69992;60.170;24.692;2023-06-14T09:04:45;102090.89;;;20.92;14.51
80640;BME280;69992;60.170;24.692;2023-06-14T09:07:11;102087.60;;;21.39;14.48
80640;BME280;69992;60.170;24.692;2023-06-14T09:09:39;102089.63;;;20.87;14.48
80640;BME280;69992;60.170;24.692;2023-06-14T09:12:02;102086.95;;;22.24;14.47
80640;BME280;69992;60.170;24.692;2023-06-14T09:14:27;102088.46;;;21.52;14.47
80640;BME280;69992;60.170;24.692;2023-06-14T09:16:53;102086.85;;;22.89;14.46
80640;BME280;69992;60.170;24.692;2023-06-14T09:19:21;102088.05;;;22.46;14.44
80640;BME280;69992;60.170;24.692;2023-06-14T09:21:47;102085.01;;;22.96;14.41
80640;BME280;69992;60.170;24.692;2023-06-14T09:24:14;102082.23;;;22.50;14.39
80640;BME280;69992;60.170;24.692;2023-06-14T09:26:38;102084.51;;;22.92;14.37
80640;BME280;69992;60.170;24.692;2023-06-14T09:29:00;102082.66;;;21.56;14.36
80640;BME280;69992;60.170;24.692;2023-06-14T09:31:25;102081.74;;;22.09;14.35
80640;BME280;69992;60.170;24.692;2023-06-14T09:33:51;102076.22;;;24.79;14.31
80640;BME280;69992;60.170;24.692;2023-06-14T09:36:17;102079.57;;;22.58;14.25
80640;BME280;69992;60.170;24.692;2023-06-14T09:38:42;102076.75;;;24.22;14.22
80640;BME280;69992;60.170;24.692;2023-06-14T09:41:07;102073.34;;;24.09;14.13
80640;BME280;69992;60.170;24.692;2023-06-14T09:43:33;102073.02;;;24.82;13.88
80640;BME280;69992;60.170;24.692;2023-06-14T09:45:58;102078.04;;;26.92;13.65
80640;BME280;69992;60.170;24.692;2023-06-14T09:48:23;102080.97;;;26.93;13.46
80640;BME280;69992;60.170;24.692;2023-06-14T09:50:50;102078.89;;;28.86;13.30
80640;BME280;69992;60.170;24.692;2023-06-14T09:53:14;102080.43;;;29.36;13.17
80640;BME280;69992;60.170;24.692;2023-06-14T09:55:41;102077.11;;;29.71;13.09
80640;BME280;69992;60.170;24.692;2023-06-14T09:58:07;102073.93;;;29.31;12.96
80640;BME280;69992;60.170;24.692;2023-06-14T10:00:31;102072.04;;;30.50;12.91
80640;BME280;69992;60.170;24.692;2023-06-14T10:03:00;102072.85;;;31.22;12.91
80640;BME280;69992;60.170;24.692;2023-06-14T10:05:21;102071.18;;;30.84;12.95
80640;BME280;69992;60.170;24.692;2023-06-14T10:07:52;102068.69;;;30.74;12.90
80640;BME280;69992;60.170;24.692;2023-06-14T10:10:12;102070.10;;;31.70;12.86
80640;BME280;69992;60.170;24.692;2023-06-14T10:12:37;102071.90;;;32.70;12.82
80640;BME280;69992;60.170;24.692;2023-06-14T10:15:03;102074.60;;;32.62;12.80
80640;BME280;69992;60.170;24.692;2023-06-14T10:17:33;102074.86;;;32.44;12.80
80640;BME280;69992;60.170;24.692;2023-06-14T10:19:58;102075.60;;;33.27;12.77
80640;BME280;69992;60.170;24.692;2023-06-14T10:22:21;102077.58;;;32.02;12.77
80640;BME280;69992;60.170;24.692;2023-06-14T10:24:44;102073.01;;;32.83;12.74
80640;BME280;69992;60.170;24.692;2023-06-14T10:27:09;102067.64;;;33.21;12.74
80640;BME280;69992;60.170;24.692;2023-06-14T10:29:34;102067.75;;;33.88;12.71
80640;BME280;69992;60.170;24.692;2023-06-14T10:32:00;102069.80;;;34.70;12.72
80640;BME280;69992;60.170;24.692;2023-06-14T10:34:25;102067.54;;;34.50;12.63
80640;BME280;69992;60.170;24.692;2023-06-14T10:37:01;102067.61;;;34.00;12.65
80640;BME280;69992;60.170;24.692;2023-06-14T10:39:17;102066.00;;;34.48;12.59
80640;BME280;69992;60.170;24.692;2023-06-14T10:41:42;102065.69;;;34.69;12.63
80640;BME280;69992;60.170;24.692;2023-06-14T10:46:32;102059.56;;;32.78;12.67
80640;BME280;69992;60.170;24.692;2023-06-14T10:48:57;102055.84;;;34.81;12.70
80640;BME280;69992;60.170;24.692;2023-06-14T10:51:23;102057.72;;;34.81;12.77
80640;BME280;69992;60.170;24.692;2023-06-14T10:53:49;102052.90;;;32.64;12.88
80640;BME280;69992;60.170;24.692;2023-06-14T10:56:24;102047.37;;;32.78;13.13
80640;BME280;69992;60.170;24.692;2023-06-14T10:58:39;102047.88;;;30.91;13.36
80640;BME280;69992;60.170;24.692;2023-06-14T11:01:04;102044.38;;;31.00;13.58
80640;BME280;69992;60.170;24.692;2023-06-14T11:03:43;102037.98;;;29.96;13.82
80640;BME280;69992;60.170;24.692;2023-06-14T11:05:56;102034.62;;;29.06;14.01
80640;BME280;69992;60.170;24.692;2023-06-14T11:08:33;102032.58;;;27.58;14.16
80640;BME280;69992;60.170;24.692;2023-06-14T11:10:45;102030.47;;;27.45;14.25
80640;BME280;69992;60.170;24.692;2023-06-14T11:13:11;102030.25;;;27.40;14.34
80640;BME280;69992;60.170;24.692;2023-06-14T11:15:37;102025.59;;;27.54;14.46
80640;BME280;69992;60.170;24.692;2023-06-14T11:18:04;102025.15;;;27.84;14.50
80640;BME280;69992;60.170;24.692;2023-06-14T11:20:29;102024.55;;;26.43;14.50
80640;BME280;69992;60.170;24.692;2023-06-14T11:22:53;102023.20;;;26.98;14.51
80640;BME280;69992;60.170;24.692;2023-06-14T11:25:18;102023.24;;;27.52;14.53
80640;BME280;69992;60.170;24.692;2023-06-14T11:27:43;102023.07;;;27.10;14.54
80640;BME280;69992;60.170;24.692;2023-06-14T11:30:10;102026.26;;;26.80;14.58
80640;BME280;69992;60.170;24.692;2023-06-14T11:32:34;102025.53;;;26.60;14.58
80640;BME280;69992;60.170;24.692;2023-06-14T11:34:59;102023.19;;;26.73;14.57
80640;BME280;69992;60.170;24.692;2023-06-14T11:37:25;102020.55;;;27.89;14.43
80640;BME280;69992;60.170;24.692;2023-06-14T11:39:50;102022.40;;;27.77;14.37
80640;BME280;69992;60.170;24.692;2023-06-14T11:42:16;102022.38;;;28.55;14.12
80640;BME280;69992;60.170;24.692;2023-06-14T11:44:41;102025.77;;;30.65;13.84
80640;BME280;69992;60.170;24.692;2023-06-14T11:47:06;102024.05;;;30.46;13.58
80640;BME280;69992;60.170;24.692;2023-06-14T11:49:35;102019.60;;;31.15;13.54
80640;BME280;69992;60.170;24.692;2023-06-14T11:51:57;102014.14;;;30.51;13.60
80640;BME280;69992;60.170;24.692;2023-06-14T11:54:22;102010.96;;;29.62;13.72
80640;BME280;69992;60.170;24.692;2023-06-14T11:56:48;102011.09;;;28.80;13.82
80640;BME280;69992;60.170;24.692;2023-06-14T11:59:14;102008.22;;;28.16;13.90
80640;BME280;69992;60.170;24.692;2023-06-14T12:01:38;102003.51;;;29.87;13.95
80640;BME280;69992;60.170;24.692;2023-06-14T12:04:04;102002.22;;;30.11;13.94
80640;BME280;69992;60.170;24.692;2023-06-14T12:06:30;102002.61;;;28.68;13.89
80640;BME280;69992;60.170;24.692;2023-06-14T12:08:56;101995.52;;;30.10;13.70
80640;BME280;69992;60.170;24.692;2023-06-14T12:11:20;101998.42;;;29.08;13.52
80640;BME280;69992;60.170;24.692;2023-06-14T12:13:45;102000.97;;;31.87;13.51
80640;BME280;69992;60.170;24.692;2023-06-14T12:16:11;101997.93;;;30.33;13.08
80640;BME280;69992;60.170;24.692;2023-06-14T12:18:37;102000.25;;;33.11;13.03
80640;BME280;69992;60.170;24.692;2023-06-14T12:21:02;101995.47;;;34.11;12.87
80640;BME280;69992;60.170;24.692;2023-06-14T12:23:26;101998.54;;;35.07;12.67
80640;BME280;69992;60.170;24.692;2023-06-14T12:25:52;101998.89;;;34.75;12.54
80640;BME280;69992;60.170;24.692;2023-06-14T12:28:17;101999.09;;;34.28;12.43
80640;BME280;69992;60.170;24.692;2023-06-14T12:30:42;102001.59;;;35.43;12.34
80640;BME280;69992;60.170;24.692;2023-06-14T12:33:08;101999.84;;;36.52;12.29
80640;BME280;69992;60.170;24.692;2023-06-14T12:35:33;101998.44;;;36.79;12.19